sensor_id;sensor_type;location;lat;lon;timestamp;P1;durP1;ratioP1;P2;durP2;ratioP2
76964;SDS011;65903;51.452;7.198;2023-06-14T00:00:11;9.30;;;6.55;;
76964;SDS011;65903;51.452;7.198;2023-06-14T00:01:13;12.13;;;6.50;;
76964;SDS011;65903;51.452;7.198;2023-06-14T00:02:15;8.88;;;6.25;;
76964;SDS011;65903;51.452;7.198;2023-06-14T00:03:16;9.40;;;6.47;;
76964;SDS011;65903;51.452;7.198;2023-06-14T00:04:17;8.68;;;6.53;;
76964;SDS011;65903;51.452;7.198;2023-06-14T00:05:21;9.65;;;7.18;;
76964;SDS011;65903;51.452;7.198;2023-06-14T00:06:23;9.70;;;7.15;;
76964;SDS011;65903;51.452;7.198;2023-06-14T00:07:33;9.52;;;6.55;;
76964;SDS011;65903;51.452;7.198;2023-06-14T00:08:34;8.02;;;6.80;;
76964;SDS011;65903;51.452;7.198;2023-06-14T00:09:35;8.95;;;6.82;;
76964;SDS011;65903;51.452;7.198;2023-06-14T00:10:36;11.35;;;6.82;;
76964;SDS011;65903;51.452;7.198;2023-06-14T00:11:37;8.32;;;6.88;;
76964;SDS011;65903;51.452;7.198;2023-06-14T00:12:38;10.45;;;7.03;;
76964;SDS011;65903;51.452;7.198;2023-06-14T00:13:40;9.05;;;6.50;;
76964;SDS011;65903;51.452;7.198;2023-06-14T00:14:41;8.50;;;6.60;;
76964;SDS011;65903;51.452;7.198;2023-06-14T00:15:43;8.18;;;6.13;;
76964;SDS011;65903;51.452;7.198;2023-06-14T00:16:44;11.43;;;6.80;;
76964;SDS011;65903;51.452;7.198;2023-06-14T00:17:45;10.98;;;5.82;;
76964;SDS011;65903;51.452;7.198;2023-06-14T00:18:48;9.20;;;5.70;;
76964;SDS011;65903;51.452;7.198;2023-06-14T00:19:48;10.20;;;6.43;;
76964;SDS011;65903;51.452;7.198;2023-06-14T00:20:50;9.13;;;5.72;;
76964;SDS011;65903;51.452;7.198;2023-06-14T00:21:52;8.02;;;6.40;;
76964;SDS011;65903;51.452;7.198;2023-06-14T00:22:53;10.80;;;6.30;;
76964;SDS011;65903;51.452;7.198;2023-06-14T00:23:57;10.50;;;6.63;;
76964;SDS011;65903;51.452;7.198;2023-06-14T00:24:58;8.32;;;5.55;;
76964;SDS011;65903;51.452;7.198;2023-06-14T00:25:59;7.40;;;5.80;;
76964;SDS011;65903;51.452;7.198;2023-06-14T00:27:00;7.28;;;6.07;;
76964;SDS011;65903;51.452;7.198;2023-06-14T00:28:00;8.45;;;6.70;;
76964;SDS011;65903;51.452;7.198;2023-06-14T00:29:01;8.60;;;6.55;;
76964;SDS011;65903;51.452;7.198;2023-06-14T00:30:02;9.90;;;6.07;;
76964;SDS011;65903;51.452;7.198;2023-06-14T00:31:03;7.43;;;5.40;;
76964;SDS011;65903;51.452;7.198;2023-06-14T00:32:04;8.90;;;6.60;;
76964;SDS011;65903;51.452;7.198;2023-06-14T00:33:05;10.93;;;5.85;;
76964;SDS011;65903;51.452;7.198;2023-06-14T00:34:06;11.05;;;5.65;;
76964;SDS011;65903;51.452;7.198;2023-06-14T00:35:07;8.20;;;5.55;;
76964;SDS011;65903;51.452;7.198;2023-06-14T00:36:08;9.13;;;5.53;;
76964;SDS011;65903;51.452;7.198;2023-06-14T00:37:09;10.10;;;5.93;;
76964;SDS011;65903;51.452;7.198;2023-06-14T00:38:10;9.05;;;5.82;;
76964;SDS011;65903;51.452;7.198;2023-06-14T00:39:10;8.60;;;5.65;;
76964;SDS011;65903;51.452;7.198;2023-06-14T00:40:12;7.45;;;5.03;;
76964;SDS011;65903;51.452;7.198;2023-06-14T00:41:13;10.73;;;5.93;;
76964;SDS011;65903;51.452;7.198;2023-06-14T00:42:23;6.95;;;5.72;;
76964;SDS011;65903;51.452;7.198;2023-06-14T00:43:25;6.35;;;5.32;;
76964;SDS011;65903;51.452;7.198;2023-06-14T00:44:26;9.35;;;5.60;;
76964;SDS011;65903;51.452;7.198;2023-06-14T00:45:27;9.02;;;6.30;;
76964;SDS011;65903;51.452;7.198;2023-06-14T00:46:28;8.65;;;5.25;;
76964;SDS011;65903;51.452;7.198;2023-06-14T00:47:28;7.85;;;5.55;;
76964;SDS011;65903;51.452;7.198;2023-06-14T00:48:30;8.20;;;5.55;;
76964;SDS011;65903;51.452;7.198;2023-06-14T00:49:32;9.13;;;5.75;;
76964;SDS011;65903;51.452;7.198;2023-06-14T00:50:33;7.82;;;5.53;;
76964;SDS011;65903;51.452;7.198;2023-06-14T00:51:34;7.00;;;5.93;;
76964;SDS011;65903;51.452;7.198;2023-06-14T00:52:35;8.50;;;5.90;;
76964;SDS011;65903;51.452;7.198;2023-06-14T00:53:36;7.82;;;5.75;;
76964;SDS011;65903;51.452;7.198;2023-06-14T00:54:40;10.10;;;5.85;;
76964;SDS011;65903;51.452;7.198;2023-06-14T00:55:42;8.00;;;5.57;;
76964;SDS011;65903;51.452;7.198;2023-06-14T00:56:43;9.30;;;5.65;;
76964;SDS011;65903;51.452;7.198;2023-06-14T00:57:44;8.95;;;5.53;;
76964;SDS011;65903;51.452;7.198;2023-06-14T00:58:46;8.48;;;5.22;;
76964;SDS011;65903;51.452;7.198;2023-06-14T00:59:47;10.30;;;5.68;;
76964;SDS011;65903;51.452;7.198;2023-06-14T01:00:49;11.70;;;5.80;;
76964;SDS011;65903;51.452;7.198;2023-06-14T01:01:51;7.78;;;5.50;;
76964;SDS011;65903;51.452;7.198;2023-06-14T01:02:52;7.57;;;5.20;;
76964;SDS011;65903;51.452;7.198;2023-06-14T01:03:54;11.00;;;6.03;;
76964;SDS011;65903;51.452;7.198;2023-06-14T01:04:55;7.20;;;5.22;;
76964;SDS011;65903;51.452;7.198;2023-06-14T01:06:09;8.55;;;5.55;;
76964;SDS011;65903;51.452;7.198;2023-06-14T01:08:31;8.70;;;5.57;;
76964;SDS011;65903;51.452;7.198;2023-06-14T01:09:47;7.10;;;5.00;;
76964;SDS011;65903;51.452;7.198;2023-06-14T01:11:21;8.00;;;5.72;;
76964;SDS011;65903;51.452;7.198;2023-06-14T01:12:27;7.03;;;6.03;;
76964;SDS011;65903;51.452;7.198;2023-06-14T01:13:33;7.80;;;5.57;;
76964;SDS011;65903;51.452;7.198;2023-06-14T01:14:35;6.60;;;5.57;;
76964;SDS011;65903;51.452;7.198;2023-06-14T01:15:37;7.00;;;5.88;;
76964;SDS011;65903;51.452;7.198;2023-06-14T01:16:39;7.68;;;5.38;;
76964;SDS011;65903;51.452;7.198;2023-06-14T01:17:40;7.30;;;5.65;;
76964;SDS011;65903;51.452;7.198;2023-06-14T01:18:44;7.72;;;5.00;;
76964;SDS011;65903;51.452;7.198;2023-06-14T01:19:48;6.35;;;4.70;;
76964;SDS011;65903;51.452;7.198;2023-06-14T01:20:49;9.02;;;5.43;;
76964;SDS011;65903;51.452;7.198;2023-06-14T01:21:50;7.40;;;5.20;;
76964;SDS011;65903;51.452;7.198;2023-06-14T01:22:51;7.47;;;5.45;;
76964;SDS011;65903;51.452;7.198;2023-06-14T01:23:53;8.02;;;4.90;;
76964;SDS011;65903;51.452;7.198;2023-06-14T01:24:55;7.32;;;4.85;;
76964;SDS011;65903;51.452;7.198;2023-06-14T01:25:55;7.30;;;4.93;;
76964;SDS011;65903;51.452;7.198;2023-06-14T01:26:56;7.90;;;5.30;;
76964;SDS011;65903;51.452;7.198;2023-06-14T01:28:00;7.20;;;5.38;;
76964;SDS011;65903;51.452;7.198;2023-06-14T01:29:03;8.52;;;5.80;;
76964;SDS011;65903;51.452;7.198;2023-06-14T01:30:05;6.38;;;4.90;;
76964;SDS011;65903;51.452;7.198;2023-06-14T01:31:06;8.40;;;5.60;;
76964;SDS011;65903;51.452;7.198;2023-06-14T01:32:08;7.57;;;5.10;;
76964;SDS011;65903;51.452;7.198;2023-06-14T01:33:09;7.25;;;5.18;;
76964;SDS011;65903;51.452;7.198;2023-06-14T01:34:10;6.53;;;4.80;;
76964;SDS011;65903;51.452;7.198;2023-06-14T01:35:10;8.65;;;5.05;;
76964;SDS011;65903;51.452;7.198;2023-06-14T01:36:11;7.07;;;5.20;;
76964;SDS011;65903;51.452;7.198;2023-06-14T01:37:13;7.82;;;5.88;;
76964;SDS011;65903;51.452;7.198;2023-06-14T01:38:14;7.13;;;4.90;;
76964;SDS011;65903;51.452;7.198;2023-06-14T01:39:15;8.57;;;5.05;;
76964;SDS011;65903;51.452;7.198;2023-06-14T01:40:16;8.10;;;5.18;;
76964;SDS011;65903;51.452;7.198;2023-06-14T01:41:18;7.97;;;5.22;;
76964;SDS011;65903;51.452;7.198;2023-06-14T01:42:20;7.45;;;5.70;;
76964;SDS011;65903;51.452;7.198;2023-06-14T01:43:21;6.53;;;5.40;;
76964;SDS011;65903;51.452;7.198;2023-06-14T01:44:23;6.82;;;5.32;;
76964;SDS011;65903;51.452;7.198;2023-06-14T01:45:24;7.53;;;4.82;;
76964;SDS011;65903;51.452;7.198;2023-06-14T01:46:25;7.88;;;5.30;;
76964;SDS011;65903;51.452;7.198;2023-06-14T01:47:26;9.27;;;5.22;;
76964;SDS011;65903;51.452;7.198;2023-06-14T01:48:27;8.82;;;4.65;;
76964;SDS011;65903;51.452;7.198;2023-06-14T01:49:28;6.78;;;4.70;;
76964;SDS011;65903;51.452;7.198;2023-06-14T01:50:29;6.43;;;5.30;;
76964;SDS011;65903;51.452;7.198;2023-06-14T01:51:31;6.57;;;4.93;;
76964;SDS011;65903;51.452;7.198;2023-06-14T01:52:32;7.95;;;5.32;;
76964;SDS011;65903;51.452;7.198;2023-06-14T01:53:33;8.30;;;4.88;;
76964;SDS011;65903;51.452;7.198;2023-06-14T01:54:34;6.85;;;4.85;;
76964;SDS011;65903;51.452;7.198;2023-06-14T01:55:35;6.63;;;4.93;;
76964;SDS011;65903;51.452;7.198;2023-06-14T01:56:37;8.18;;;5.25;;
76964;SDS011;65903;51.452;7.198;2023-06-14T01:57:38;6.32;;;4.75;;
76964;SDS011;65903;51.452;7.198;2023-06-14T01:58:40;7.65;;;4.85;;
76964;SDS011;65903;51.452;7.198;2023-06-14T01:59:41;6.35;;;5.13;;
76964;SDS011;65903;51.452;7.198;2023-06-14T02:00:42;11.18;;;5.75;;
76964;SDS011;65903;51.452;7.198;2023-06-14T02:01:44;7.35;;;5.50;;
76964;SDS011;65903;51.452;7.198;2023-06-14T02:02:46;7.72;;;5.55;;
76964;SDS011;65903;51.452;7.198;2023-06-14T02:03:47;6.50;;;5.22;;
76964;SDS011;65903;51.452;7.198;2023-06-14T02:04:49;7.00;;;4.72;;
76964;SDS011;65903;51.452;7.198;2023-06-14T02:05:50;5.78;;;4.63;;
76964;SDS011;65903;51.452;7.198;2023-06-14T02:06:51;8.20;;;4.95;;
76964;SDS011;65903;51.452;7.198;2023-06-14T02:07:52;8.90;;;5.10;;
76964;SDS011;65903;51.452;7.198;2023-06-14T02:08:53;8.48;;;5.32;;
76964;SDS011;65903;51.452;7.198;2023-06-14T02:09:54;9.75;;;4.90;;
76964;SDS011;65903;51.452;7.198;2023-06-14T02:10:55;7.72;;;5.50;;
76964;SDS011;65903;51.452;7.198;2023-06-14T02:11:56;7.78;;;5.53;;
76964;SDS011;65903;51.452;7.198;2023-06-14T02:12:56;6.95;;;4.90;;
76964;SDS011;65903;51.452;7.198;2023-06-14T02:13:57;6.15;;;4.57;;
76964;SDS011;65903;51.452;7.198;2023-06-14T02:15:00;7.25;;;5.18;;
76964;SDS011;65903;51.452;7.198;2023-06-14T02:16:01;10.32;;;5.72;;
76964;SDS011;65903;51.452;7.198;2023-06-14T02:17:01;7.22;;;5.20;;
76964;SDS011;65903;51.452;7.198;2023-06-14T02:18:02;7.03;;;4.65;;
76964;SDS011;65903;51.452;7.198;2023-06-14T02:19:03;7.93;;;4.65;;
76964;SDS011;65903;51.452;7.198;2023-06-14T02:20:04;6.60;;;4.63;;
76964;SDS011;65903;51.452;7.198;2023-06-14T02:21:06;10.10;;;4.90;;
76964;SDS011;65903;51.452;7.198;2023-06-14T02:22:07;7.50;;;4.88;;
76964;SDS011;65903;51.452;7.198;2023-06-14T02:23:07;6.80;;;4.53;;
76964;SDS011;65903;51.452;7.198;2023-06-14T02:24:08;6.82;;;4.93;;
76964;SDS011;65903;51.452;7.198;2023-06-14T02:25:09;8.60;;;5.32;;
76964;SDS011;65903;51.452;7.198;2023-06-14T02:26:10;6.65;;;4.80;;
76964;SDS011;65903;51.452;7.198;2023-06-14T02:27:11;6.82;;;4.50;;
76964;SDS011;65903;51.452;7.198;2023-06-14T02:28:12;8.57;;;5.10;;
76964;SDS011;65903;51.452;7.198;2023-06-14T02:29:13;10.00;;;5.28;;
76964;SDS011;65903;51.452;7.198;2023-06-14T02:30:15;7.85;;;5.05;;
76964;SDS011;65903;51.452;7.198;2023-06-14T02:31:16;8.32;;;4.78;;
76964;SDS011;65903;51.452;7.198;2023-06-14T02:32:17;8.13;;;4.78;;
76964;SDS011;65903;51.452;7.198;2023-06-14T02:33:18;9.60;;;5.18;;
76964;SDS011;65903;51.452;7.198;2023-06-14T02:34:18;7.47;;;4.75;;
76964;SDS011;65903;51.452;7.198;2023-06-14T02:35:20;7.80;;;4.55;;
76964;SDS011;65903;51.452;7.198;2023-06-14T02:36:22;9.20;;;4.88;;
76964;SDS011;65903;51.452;7.198;2023-06-14T02:37:23;8.43;;;4.80;;
76964;SDS011;65903;51.452;7.198;2023-06-14T02:38:24;6.82;;;4.82;;
76964;SDS011;65903;51.452;7.198;2023-06-14T02:39:25;10.52;;;4.80;;
76964;SDS011;65903;51.452;7.198;2023-06-14T02:40:26;8.13;;;5.05;;
76964;SDS011;65903;51.452;7.198;2023-06-14T02:41:27;10.85;;;5.50;;
76964;SDS011;65903;51.452;7.198;2023-06-14T02:42:28;7.68;;;5.22;;
76964;SDS011;65903;51.452;7.198;2023-06-14T02:43:29;7.80;;;5.00;;
76964;SDS011;65903;51.452;7.198;2023-06-14T02:44:30;7.95;;;5.07;;
76964;SDS011;65903;51.452;7.198;2023-06-14T02:45:31;7.38;;;5.40;;
76964;SDS011;65903;51.452;7.198;2023-06-14T02:46:32;7.10;;;4.70;;
76964;SDS011;65903;51.452;7.198;2023-06-14T02:47:32;7.13;;;5.35;;
76964;SDS011;65903;51.452;7.198;2023-06-14T02:48:33;6.82;;;4.72;;
76964;SDS011;65903;51.452;7.198;2023-06-14T02:49:34;8.63;;;4.47;;
76964;SDS011;65903;51.452;7.198;2023-06-14T02:50:35;7.80;;;5.57;;
76964;SDS011;65903;51.452;7.198;2023-06-14T02:51:36;9.65;;;5.22;;
76964;SDS011;65903;51.452;7.198;2023-06-14T02:52:37;8.18;;;5.07;;
76964;SDS011;65903;51.452;7.198;2023-06-14T02:53:38;8.43;;;5.47;;
76964;SDS011;65903;51.452;7.198;2023-06-14T02:54:39;6.10;;;5.03;;
76964;SDS011;65903;51.452;7.198;2023-06-14T02:55:40;7.07;;;4.97;;
76964;SDS011;65903;51.452;7.198;2023-06-14T02:56:41;9.55;;;4.78;;
76964;SDS011;65903;51.452;7.198;2023-06-14T02:57:42;7.97;;;4.55;;
76964;SDS011;65903;51.452;7.198;2023-06-14T02:58:43;7.25;;;5.15;;
76964;SDS011;65903;51.452;7.198;2023-06-14T02:59:43;7.85;;;5.10;;
76964;SDS011;65903;51.452;7.198;2023-06-14T03:00:45;7.35;;;4.97;;
76964;SDS011;65903;51.452;7.198;2023-06-14T03:01:45;7.50;;;4.50;;
76964;SDS011;65903;51.452;7.198;2023-06-14T03:02:46;6.30;;;4.93;;
76964;SDS011;65903;51.452;7.198;2023-06-14T03:03:47;7.45;;;4.97;;
76964;SDS011;65903;51.452;7.198;2023-06-14T03:04:48;12.18;;;5.03;;
76964;SDS011;65903;51.452;7.198;2023-06-14T03:05:49;10.15;;;4.70;;
76964;SDS011;65903;51.452;7.198;2023-06-14T03:06:52;6.50;;;4.97;;
76964;SDS011;65903;51.452;7.198;2023-06-14T03:07:54;8.05;;;5.13;;
76964;SDS011;65903;51.452;7.198;2023-06-14T03:08:54;6.47;;;4.75;;
76964;SDS011;65903;51.452;7.198;2023-06-14T03:09:55;6.25;;;4.72;;
76964;SDS011;65903;51.452;7.198;2023-06-14T03:10:55;7.65;;;5.03;;
76964;SDS011;65903;51.452;7.198;2023-06-14T03:11:56;10.27;;;4.78;;
76964;SDS011;65903;51.452;7.198;2023-06-14T03:12:57;9.43;;;4.57;;
76964;SDS011;65903;51.452;7.198;2023-06-14T03:13:57;8.88;;;5.18;;
76964;SDS011;65903;51.452;7.198;2023-06-14T03:14:59;7.38;;;4.90;;
76964;SDS011;65903;51.452;7.198;2023-06-14T03:16:04;8.65;;;5.18;;
76964;SDS011;65903;51.452;7.198;2023-06-14T03:17:05;7.60;;;5.10;;
76964;SDS011;65903;51.452;7.198;2023-06-14T03:18:08;8.50;;;4.63;;
76964;SDS011;65903;51.452;7.198;2023-06-14T03:19:16;6.65;;;4.50;;
76964;SDS011;65903;51.452;7.198;2023-06-14T03:20:17;7.50;;;5.30;;
76964;SDS011;65903;51.452;7.198;2023-06-14T03:21:19;7.05;;;4.95;;
76964;SDS011;65903;51.452;7.198;2023-06-14T03:22:21;6.55;;;5.53;;
76964;SDS011;65903;51.452;7.198;2023-06-14T03:23:23;7.40;;;4.70;;
76964;SDS011;65903;51.452;7.198;2023-06-14T03:24:24;10.73;;;4.35;;
76964;SDS011;65903;51.452;7.198;2023-06-14T03:25:27;6.50;;;4.70;;
76964;SDS011;65903;51.452;7.198;2023-06-14T03:26:29;7.18;;;4.82;;
76964;SDS011;65903;51.452;7.198;2023-06-14T03:27:31;7.68;;;5.43;;
76964;SDS011;65903;51.452;7.198;2023-06-14T03:28:32;8.52;;;4.90;;
76964;SDS011;65903;51.452;7.198;2023-06-14T03:29:32;6.03;;;4.65;;
76964;SDS011;65903;51.452;7.198;2023-06-14T03:30:33;7.13;;;4.75;;
76964;SDS011;65903;51.452;7.198;2023-06-14T03:31:34;7.05;;;4.65;;
76964;SDS011;65903;51.452;7.198;2023-06-14T03:32:36;9.90;;;4.85;;
76964;SDS011;65903;51.452;7.198;2023-06-14T03:33:37;8.07;;;5.10;;
76964;SDS011;65903;51.452;7.198;2023-06-14T03:34:38;9.70;;;4.97;;
76964;SDS011;65903;51.452;7.198;2023-06-14T03:35:39;6.82;;;4.63;;
76964;SDS011;65903;51.452;7.198;2023-06-14T03:36:40;6.55;;;4.55;;
76964;SDS011;65903;51.452;7.198;2023-06-14T03:37:41;8.45;;;4.80;;
76964;SDS011;65903;51.452;7.198;2023-06-14T03:38:41;7.90;;;4.80;;
76964;SDS011;65903;51.452;7.198;2023-06-14T03:39:42;6.65;;;4.75;;
76964;SDS011;65903;51.452;7.198;2023-06-14T03:40:46;6.03;;;4.30;;
76964;SDS011;65903;51.452;7.198;2023-06-14T03:41:47;5.93;;;4.75;;
76964;SDS011;65903;51.452;7.198;2023-06-14T03:42:47;6.88;;;5.20;;
76964;SDS011;65903;51.452;7.198;2023-06-14T03:43:48;5.93;;;5.03;;
76964;SDS011;65903;51.452;7.198;2023-06-14T03:44:49;9.30;;;5.63;;
76964;SDS011;65903;51.452;7.198;2023-06-14T03:45:50;6.25;;;4.93;;
76964;SDS011;65903;51.452;7.198;2023-06-14T03:46:51;7.85;;;4.80;;
76964;SDS011;65903;51.452;7.198;2023-06-14T03:47:52;5.90;;;4.60;;
76964;SDS011;65903;51.452;7.198;2023-06-14T03:48:53;6.95;;;4.53;;
76964;SDS011;65903;51.452;7.198;2023-06-14T03:49:53;7.10;;;4.80;;
76964;SDS011;65903;51.452;7.198;2023-06-14T03:50:54;6.45;;;4.60;;
76964;SDS011;65903;51.452;7.198;2023-06-14T03:51:56;8.80;;;4.43;;
76964;SDS011;65903;51.452;7.198;2023-06-14T03:52:57;8.75;;;4.82;;
76964;SDS011;65903;51.452;7.198;2023-06-14T03:53:58;6.10;;;4.78;;
76964;SDS011;65903;51.452;7.198;2023-06-14T03:54:58;6.60;;;4.55;;
76964;SDS011;65903;51.452;7.198;2023-06-14T03:56:03;6.35;;;4.47;;
76964;SDS011;65903;51.452;7.198;2023-06-14T03:57:04;7.70;;;4.40;;
76964;SDS011;65903;51.452;7.198;2023-06-14T03:58:05;7.32;;;4.30;;
76964;SDS011;65903;51.452;7.198;2023-06-14T03:59:06;7.20;;;4.35;;
76964;SDS011;65903;51.452;7.198;2023-06-14T04:00:10;9.05;;;5.35;;
76964;SDS011;65903;51.452;7.198;2023-06-14T04:01:13;6.88;;;4.55;;
76964;SDS011;65903;51.452;7.198;2023-06-14T04:02:14;6.85;;;4.95;;
76964;SDS011;65903;51.452;7.198;2023-06-14T04:03:18;6.93;;;4.63;;
76964;SDS011;65903;51.452;7.198;2023-06-14T04:04:20;6.00;;;4.40;;
76964;SDS011;65903;51.452;7.198;2023-06-14T04:05:22;7.13;;;4.35;;
76964;SDS011;65903;51.452;7.198;2023-06-14T04:06:26;8.50;;;4.82;;
76964;SDS011;65903;51.452;7.198;2023-06-14T04:07:32;8.90;;;4.20;;
76964;SDS011;65903;51.452;7.198;2023-06-14T04:08:40;8.23;;;4.63;;
76964;SDS011;65903;51.452;7.198;2023-06-14T04:09:42;8.07;;;4.43;;
76964;SDS011;65903;51.452;7.198;2023-06-14T04:10:43;7.57;;;4.53;;
76964;SDS011;65903;51.452;7.198;2023-06-14T04:11:44;8.57;;;4.22;;
76964;SDS011;65903;51.452;7.198;2023-06-14T04:12:44;7.50;;;4.30;;
76964;SDS011;65903;51.452;7.198;2023-06-14T04:13:45;5.82;;;4.00;;
76964;SDS011;65903;51.452;7.198;2023-06-14T04:14:47;8.20;;;4.30;;
76964;SDS011;65903;51.452;7.198;2023-06-14T04:15:48;5.53;;;4.32;;
76964;SDS011;65903;51.452;7.198;2023-06-14T04:16:49;7.07;;;4.57;;
76964;SDS011;65903;51.452;7.198;2023-06-14T04:17:50;8.48;;;4.40;;
76964;SDS011;65903;51.452;7.198;2023-06-14T04:18:51;9.57;;;5.03;;
76964;SDS011;65903;51.452;7.198;2023-06-14T04:19:52;6.55;;;4.25;;
76964;SDS011;65903;51.452;7.198;2023-06-14T04:20:53;7.25;;;4.10;;
76964;SDS011;65903;51.452;7.198;2023-06-14T04:21:54;7.03;;;4.25;;
76964;SDS011;65903;51.452;7.198;2023-06-14T04:22:56;8.45;;;4.53;;
76964;SDS011;65903;51.452;7.198;2023-06-14T04:23:57;8.48;;;3.90;;
76964;SDS011;65903;51.452;7.198;2023-06-14T04:24:58;7.72;;;4.10;;
76964;SDS011;65903;51.452;7.198;2023-06-14T04:25:59;7.75;;;4.57;;
76964;SDS011;65903;51.452;7.198;2023-06-14T04:27:02;9.00;;;4.65;;
76964;SDS011;65903;51.452;7.198;2023-06-14T04:28:04;7.93;;;4.85;;
76964;SDS011;65903;51.452;7.198;2023-06-14T04:29:05;7.63;;;4.53;;
76964;SDS011;65903;51.452;7.198;2023-06-14T04:30:07;7.45;;;5.05;;
76964;SDS011;65903;51.452;7.198;2023-06-14T04:31:08;7.05;;;4.30;;
76964;SDS011;65903;51.452;7.198;2023-06-14T04:32:09;5.25;;;4.38;;
76964;SDS011;65903;51.452;7.198;2023-06-14T04:33:10;6.40;;;3.83;;
76964;SDS011;65903;51.452;7.198;2023-06-14T04:34:12;7.75;;;4.07;;
76964;SDS011;65903;51.452;7.198;2023-06-14T04:35:16;8.07;;;4.50;;
76964;SDS011;65903;51.452;7.198;2023-06-14T04:36:17;7.15;;;4.13;;
76964;SDS011;65903;51.452;7.198;2023-06-14T04:37:18;8.25;;;4.55;;
76964;SDS011;65903;51.452;7.198;2023-06-14T04:38:21;8.43;;;4.03;;
76964;SDS011;65903;51.452;7.198;2023-06-14T04:39:25;6.50;;;4.22;;
76964;SDS011;65903;51.452;7.198;2023-06-14T04:40:27;7.43;;;3.70;;
76964;SDS011;65903;51.452;7.198;2023-06-14T04:41:28;6.50;;;3.97;;
76964;SDS011;65903;51.452;7.198;2023-06-14T04:42:31;7.15;;;3.95;;
76964;SDS011;65903;51.452;7.198;2023-06-14T04:43:32;8.13;;;4.03;;
76964;SDS011;65903;51.452;7.198;2023-06-14T04:44:38;6.20;;;3.80;;
76964;SDS011;65903;51.452;7.198;2023-06-14T04:45:40;9.05;;;3.55;;
76964;SDS011;65903;51.452;7.198;2023-06-14T04:46:45;7.30;;;4.25;;
76964;SDS011;65903;51.452;7.198;2023-06-14T04:47:46;7.05;;;4.15;;
76964;SDS011;65903;51.452;7.198;2023-06-14T04:48:47;6.65;;;3.85;;
76964;SDS011;65903;51.452;7.198;2023-06-14T04:49:50;6.60;;;4.00;;
76964;SDS011;65903;51.452;7.198;2023-06-14T04:50:52;8.50;;;4.10;;
76964;SDS011;65903;51.452;7.198;2023-06-14T04:51:54;9.50;;;4.25;;
76964;SDS011;65903;51.452;7.198;2023-06-14T04:52:57;7.82;;;4.07;;
76964;SDS011;65903;51.452;7.198;2023-06-14T04:54:00;5.55;;;3.72;;
76964;SDS011;65903;51.452;7.198;2023-06-14T04:55:01;8.00;;;4.03;;
76964;SDS011;65903;51.452;7.198;2023-06-14T04:56:02;6.03;;;4.13;;
76964;SDS011;65903;51.452;7.198;2023-06-14T04:57:04;6.35;;;4.07;;
76964;SDS011;65903;51.452;7.198;2023-06-14T04:58:05;7.53;;;4.20;;
76964;SDS011;65903;51.452;7.198;2023-06-14T04:59:06;7.95;;;4.80;;
76964;SDS011;65903;51.452;7.198;2023-06-14T05:00:06;6.10;;;3.90;;
76964;SDS011;65903;51.452;7.198;2023-06-14T05:01:07;9.60;;;3.75;;
76964;SDS011;65903;51.452;7.198;2023-06-14T05:02:10;8.02;;;4.00;;
76964;SDS011;65903;51.452;7.198;2023-06-14T05:03:11;5.28;;;3.88;;
76964;SDS011;65903;51.452;7.198;2023-06-14T05:04:16;6.72;;;4.55;;
76964;SDS011;65903;51.452;7.198;2023-06-14T05:05:16;4.78;;;3.85;;
76964;SDS011;65903;51.452;7.198;2023-06-14T05:06:17;7.72;;;3.80;;
76964;SDS011;65903;51.452;7.198;2023-06-14T05:07:18;10.60;;;4.10;;
76964;SDS011;65903;51.452;7.198;2023-06-14T05:08:21;5.57;;;3.47;;
76964;SDS011;65903;51.452;7.198;2023-06-14T05:09:24;10.23;;;4.07;;
76964;SDS011;65903;51.452;7.198;2023-06-14T05:10:25;5.63;;;3.90;;
76964;SDS011;65903;51.452;7.198;2023-06-14T05:11:26;8.70;;;3.90;;
76964;SDS011;65903;51.452;7.198;2023-06-14T05:12:27;9.65;;;4.30;;
76964;SDS011;65903;51.452;7.198;2023-06-14T05:13:29;7.32;;;3.92;;
76964;SDS011;65903;51.452;7.198;2023-06-14T05:14:33;5.50;;;3.88;;
76964;SDS011;65903;51.452;7.198;2023-06-14T05:15:35;5.70;;;4.15;;
76964;SDS011;65903;51.452;7.198;2023-06-14T05:16:36;8.73;;;3.90;;
76964;SDS011;65903;51.452;7.198;2023-06-14T05:17:37;5.40;;;3.92;;
76964;SDS011;65903;51.452;7.198;2023-06-14T05:18:41;8.70;;;3.80;;
76964;SDS011;65903;51.452;7.198;2023-06-14T05:19:41;5.75;;;3.67;;
76964;SDS011;65903;51.452;7.198;2023-06-14T05:20:42;5.20;;;4.20;;
76964;SDS011;65903;51.452;7.198;2023-06-14T05:21:43;5.20;;;3.75;;
76964;SDS011;65903;51.452;7.198;2023-06-14T05:22:44;6.78;;;4.47;;
76964;SDS011;65903;51.452;7.198;2023-06-14T05:23:45;7.10;;;4.03;;
76964;SDS011;65903;51.452;7.198;2023-06-14T05:24:45;7.82;;;4.00;;
76964;SDS011;65903;51.452;7.198;2023-06-14T05:25:48;7.28;;;3.75;;
76964;SDS011;65903;51.452;7.198;2023-06-14T05:26:49;5.68;;;3.85;;
76964;SDS011;65903;51.452;7.198;2023-06-14T05:27:50;8.20;;;3.75;;
76964;SDS011;65903;51.452;7.198;2023-06-14T05:28:51;6.47;;;4.20;;
76964;SDS011;65903;51.452;7.198;2023-06-14T05:29:53;8.57;;;4.03;;
76964;SDS011;65903;51.452;7.198;2023-06-14T05:30:59;6.60;;;3.70;;
76964;SDS011;65903;51.452;7.198;2023-06-14T05:32:00;7.93;;;3.80;;
76964;SDS011;65903;51.452;7.198;2023-06-14T05:33:01;8.25;;;4.07;;
76964;SDS011;65903;51.452;7.198;2023-06-14T05:34:02;10.23;;;3.92;;
76964;SDS011;65903;51.452;7.198;2023-06-14T05:35:02;8.10;;;3.63;;
76964;SDS011;65903;51.452;7.198;2023-06-14T05:36:04;6.72;;;3.58;;
76964;SDS011;65903;51.452;7.198;2023-06-14T05:37:05;6.43;;;3.80;;
76964;SDS011;65903;51.452;7.198;2023-06-14T05:38:06;7.10;;;4.15;;
76964;SDS011;65903;51.452;7.198;2023-06-14T05:39:08;7.43;;;4.35;;
76964;SDS011;65903;51.452;7.198;2023-06-14T05:40:08;10.00;;;3.80;;
76964;SDS011;65903;51.452;7.198;2023-06-14T05:41:10;7.28;;;3.83;;
76964;SDS011;65903;51.452;7.198;2023-06-14T05:42:11;8.07;;;4.20;;
76964;SDS011;65903;51.452;7.198;2023-06-14T05:43:11;10.80;;;4.05;;
76964;SDS011;65903;51.452;7.198;2023-06-14T05:44:12;10.90;;;3.90;;
76964;SDS011;65903;51.452;7.198;2023-06-14T05:45:12;7.93;;;3.90;;
76964;SDS011;65903;51.452;7.198;2023-06-14T05:46:14;6.30;;;4.05;;
76964;SDS011;65903;51.452;7.198;2023-06-14T05:47:15;6.75;;;4.03;;
76964;SDS011;65903;51.452;7.198;2023-06-14T05:48:16;6.65;;;4.10;;
76964;SDS011;65903;51.452;7.198;2023-06-14T05:49:17;8.52;;;3.67;;
76964;SDS011;65903;51.452;7.198;2023-06-14T05:50:18;6.90;;;3.88;;
76964;SDS011;65903;51.452;7.198;2023-06-14T05:51:19;6.78;;;3.95;;
76964;SDS011;65903;51.452;7.198;2023-06-14T05:52:19;8.13;;;4.07;;
76964;SDS011;65903;51.452;7.198;2023-06-14T05:53:21;6.18;;;3.95;;
76964;SDS011;65903;51.452;7.198;2023-06-14T05:54:22;7.85;;;4.10;;
76964;SDS011;65903;51.452;7.198;2023-06-14T05:55:22;8.45;;;3.70;;
76964;SDS011;65903;51.452;7.198;2023-06-14T05:56:24;7.40;;;3.78;;
76964;SDS011;65903;51.452;7.198;2023-06-14T05:57:26;9.98;;;4.03;;
76964;SDS011;65903;51.452;7.198;2023-06-14T05:58:26;5.15;;;3.60;;
76964;SDS011;65903;51.452;7.198;2023-06-14T05:59:27;8.70;;;3.65;;
76964;SDS011;65903;51.452;7.198;2023-06-14T06:00:28;7.35;;;4.10;;
76964;SDS011;65903;51.452;7.198;2023-06-14T06:01:29;8.27;;;3.65;;
76964;SDS011;65903;51.452;7.198;2023-06-14T06:02:31;6.18;;;3.40;;
76964;SDS011;65903;51.452;7.198;2023-06-14T06:03:32;6.78;;;3.47;;
76964;SDS011;65903;51.452;7.198;2023-06-14T06:04:33;8.27;;;3.88;;
76964;SDS011;65903;51.452;7.198;2023-06-14T06:05:33;6.00;;;3.67;;
76964;SDS011;65903;51.452;7.198;2023-06-14T06:06:34;5.40;;;3.50;;
76964;SDS011;65903;51.452;7.198;2023-06-14T06:07:36;7.18;;;3.65;;
76964;SDS011;65903;51.452;7.198;2023-06-14T06:08:38;5.35;;;3.70;;
76964;SDS011;65903;51.452;7.198;2023-06-14T06:09:39;8.02;;;3.83;;
76964;SDS011;65903;51.452;7.198;2023-06-14T06:10:40;6.65;;;3.70;;
76964;SDS011;65903;51.452;7.198;2023-06-14T06:11:41;6.82;;;3.50;;